Longdongbao Airport
ZUGY : now visible

Airfield :











YOU CAN JOIN US ON...

 
LOGIN :

Register | Disclaimer

   EN    FR    IT 

 









Legend :    VFR   Marginal VFR   IFR   Intensive IFR   Very Intensive IFR
Visi :
Ceiling :
>= 8 km
>= 3000ft
5 to 8 km
1000 to 3000 ft
1500m to 5 km
500 to 1000 ft
800 to 1500m
200 to 500 ft
< 800m
< 200 ft
Symbols :   Thunderstorms  Fog  Heavy snow  Heavy precipitations  Wind > 20 kt







- Airport Elevation : 3736 ft
- IATA code : KWE


ZUGY - Longdongbao

CURRENT METAR :
  • 211400Z VRB01MPS 9999 -RA SCT018 OVC030 20/17 Q1010 NOSIG

EXPIRED METARs :
  • 211300Z 01003MPS 9999 SCT023 BKN033 19/17 Q1010 NOSIG
  • 211200Z 02002MPS 9999 FEW021 SCT033 19/17 Q1009 NOSIG

TAF TAF ZUGY
Valid from the 21 at 12:00 until the 22 at 12:00 UTC


210838Z 2112/2212 03003MPS 6000 BKN015 OVC033 TX28/2208Z TN17/2122Z
BECMG 2201/2203 18005MPS
TEMPO 2115/2118 -TSRA FEW007 BKN015 FEW026CB OVC030
ZPKM FIR / Asia



MET'MAP, your aeronautical weather chart ! - Copyright ORBIFLY December 2007 - Disclaimer

ORBIFLY MET'MAP TEAM :

Programming & Development : Alexandra Zaïnal
Concept & Development : Baudouin d'Aumeries
Co-Development & Prog : Marc-Olivier Méhu
Technical & hardware support : Manuel Goepfert

Contact : metmap@orbifly.com




SOURCES & CREDITS :

   NOAA       Earth
Advisory